sensor_id;sensor_type;location;lat;lon;timestamp;temperature;humidity
50570;DHT22;36525;49.398;7.614;2022-09-24T00:01:37;9.80;99.90
50570;DHT22;36525;49.398;7.614;2022-09-24T00:04:06;9.80;99.90
50570;DHT22;36525;49.398;7.614;2022-09-24T00:06:41;9.70;99.90
50570;DHT22;36525;49.398;7.614;2022-09-24T00:09:11;9.70;99.90
50570;DHT22;36525;49.398;7.614;2022-09-24T00:11:40;9.70;99.90
50570;DHT22;36525;49.398;7.614;2022-09-24T00:14:09;9.60;99.90
50570;DHT22;36525;49.398;7.614;2022-09-24T00:16:38;9.60;99.90
50570;DHT22;36525;49.398;7.614;2022-09-24T00:19:05;9.50;99.90
50570;DHT22;36525;49.398;7.614;2022-09-24T00:21:34;9.50;99.90
50570;DHT22;36525;49.398;7.614;2022-09-24T00:24:08;9.40;99.90
50570;DHT22;36525;49.398;7.614;2022-09-24T00:26:58;9.30;99.90
50570;DHT22;36525;49.398;7.614;2022-09-24T00:29:25;9.20;99.90
50570;DHT22;36525;49.398;7.614;2022-09-24T00:31:52;9.20;99.90
50570;DHT22;36525;49.398;7.614;2022-09-24T00:34:20;9.20;99.90
50570;DHT22;36525;49.398;7.614;2022-09-24T00:36:47;9.20;99.90
50570;DHT22;36525;49.398;7.614;2022-09-24T00:39:15;9.20;99.90
50570;DHT22;36525;49.398;7.614;2022-09-24T00:41:42;9.20;99.90
50570;DHT22;36525;49.398;7.614;2022-09-24T00:47:19;9.00;99.90
50570;DHT22;36525;49.398;7.614;2022-09-24T00:50:04;8.90;99.90
50570;DHT22;36525;49.398;7.614;2022-09-24T00:52:47;8.80;99.90
50570;DHT22;36525;49.398;7.614;2022-09-24T00:55:18;8.80;99.90
50570;DHT22;36525;49.398;7.614;2022-09-24T00:57:46;8.80;99.90
50570;DHT22;36525;49.398;7.614;2022-09-24T01:00:15;8.80;99.90
50570;DHT22;36525;49.398;7.614;2022-09-24T01:02:45;8.70;99.90
50570;DHT22;36525;49.398;7.614;2022-09-24T01:05:13;8.60;99.90
50570;DHT22;36525;49.398;7.614;2022-09-24T01:07:40;8.60;99.90
50570;DHT22;36525;49.398;7.614;2022-09-24T01:10:08;8.50;99.90
50570;DHT22;36525;49.398;7.614;2022-09-24T01:12:45;8.50;99.90
50570;DHT22;36525;49.398;7.614;2022-09-24T01:15:27;8.50;99.90
50570;DHT22;36525;49.398;7.614;2022-09-24T01:18:05;8.50;99.90
50570;DHT22;36525;49.398;7.614;2022-09-24T01:29:35;8.40;99.90
50570;DHT22;36525;49.398;7.614;2022-09-24T01:32:32;8.30;99.90
50570;DHT22;36525;49.398;7.614;2022-09-24T01:37:38;8.30;99.90
50570;DHT22;36525;49.398;7.614;2022-09-24T01:40:08;8.20;99.90
50570;DHT22;36525;49.398;7.614;2022-09-24T01:42:36;8.20;99.90
50570;DHT22;36525;49.398;7.614;2022-09-24T01:45:06;8.10;99.90
50570;DHT22;36525;49.398;7.614;2022-09-24T01:47:35;8.10;99.90
50570;DHT22;36525;49.398;7.614;2022-09-24T01:50:07;8.10;99.90
50570;DHT22;36525;49.398;7.614;2022-09-24T01:52:41;8.10;99.90
50570;DHT22;36525;49.398;7.614;2022-09-24T01:55:15;8.10;99.90
50570;DHT22;36525;49.398;7.614;2022-09-24T01:58:00;8.00;99.90
50570;DHT22;36525;49.398;7.614;2022-09-24T02:00:30;8.00;99.90
50570;DHT22;36525;49.398;7.614;2022-09-24T02:03:05;8.00;99.90
50570;DHT22;36525;49.398;7.614;2022-09-24T02:05:45;8.00;99.90
50570;DHT22;36525;49.398;7.614;2022-09-24T02:08:31;8.00;99.90
50570;DHT22;36525;49.398;7.614;2022-09-24T02:11:11;8.00;99.90
50570;DHT22;36525;49.398;7.614;2022-09-24T02:16:46;7.80;99.90
50570;DHT22;36525;49.398;7.614;2022-09-24T02:19:18;7.80;99.90
50570;DHT22;36525;49.398;7.614;2022-09-24T02:21:48;7.70;99.90
50570;DHT22;36525;49.398;7.614;2022-09-24T02:24:29;7.70;99.90
50570;DHT22;36525;49.398;7.614;2022-09-24T02:27:00;7.70;99.90
50570;DHT22;36525;49.398;7.614;2022-09-24T02:29:27;7.70;99.90
50570;DHT22;36525;49.398;7.614;2022-09-24T02:31:55;7.70;99.90
50570;DHT22;36525;49.398;7.614;2022-09-24T02:34:31;7.60;99.90
50570;DHT22;36525;49.398;7.614;2022-09-24T02:37:10;7.50;99.90
50570;DHT22;36525;49.398;7.614;2022-09-24T02:39:40;7.50;99.90
50570;DHT22;36525;49.398;7.614;2022-09-24T02:42:09;7.50;99.90
50570;DHT22;36525;49.398;7.614;2022-09-24T02:44:39;7.50;99.90
50570;DHT22;36525;49.398;7.614;2022-09-24T02:47:07;7.30;99.90
50570;DHT22;36525;49.398;7.614;2022-09-24T02:49:34;7.40;99.90
50570;DHT22;36525;49.398;7.614;2022-09-24T02:52:01;7.40;99.90
50570;DHT22;36525;49.398;7.614;2022-09-24T02:54:28;7.40;99.90
50570;DHT22;36525;49.398;7.614;2022-09-24T02:56:57;7.40;99.90
50570;DHT22;36525;49.398;7.614;2022-09-24T02:59:24;7.50;99.90
50570;DHT22;36525;49.398;7.614;2022-09-24T03:01:51;7.50;99.90
50570;DHT22;36525;49.398;7.614;2022-09-24T03:04:18;7.50;99.90
50570;DHT22;36525;49.398;7.614;2022-09-24T03:06:45;7.50;99.90
50570;DHT22;36525;49.398;7.614;2022-09-24T03:09:12;7.50;99.90
50570;DHT22;36525;49.398;7.614;2022-09-24T03:11:39;7.50;99.90
50570;DHT22;36525;49.398;7.614;2022-09-24T03:14:09;7.60;99.90
50570;DHT22;36525;49.398;7.614;2022-09-24T03:16:36;7.50;99.90
50570;DHT22;36525;49.398;7.614;2022-09-24T03:19:05;7.60;99.90
50570;DHT22;36525;49.398;7.614;2022-09-24T03:21:32;7.60;99.90
50570;DHT22;36525;49.398;7.614;2022-09-24T03:23:59;7.60;99.90
50570;DHT22;36525;49.398;7.614;2022-09-24T03:26:26;7.60;99.90
50570;DHT22;36525;49.398;7.614;2022-09-24T03:28:53;7.60;99.90
50570;DHT22;36525;49.398;7.614;2022-09-24T03:31:20;7.70;99.90
50570;DHT22;36525;49.398;7.614;2022-09-24T03:33:50;7.70;99.90
50570;DHT22;36525;49.398;7.614;2022-09-24T03:36:23;7.70;99.90
50570;DHT22;36525;49.398;7.614;2022-09-24T03:38:53;7.80;99.90
50570;DHT22;36525;49.398;7.614;2022-09-24T03:41:23;7.80;99.90
50570;DHT22;36525;49.398;7.614;2022-09-24T03:43:50;7.90;99.90
50570;DHT22;36525;49.398;7.614;2022-09-24T03:46:18;7.90;99.90
50570;DHT22;36525;49.398;7.614;2022-09-24T03:48:45;7.90;99.90
50570;DHT22;36525;49.398;7.614;2022-09-24T03:51:17;7.90;99.90
50570;DHT22;36525;49.398;7.614;2022-09-24T03:53:46;7.90;99.90
50570;DHT22;36525;49.398;7.614;2022-09-24T03:56:14;7.80;99.90
50570;DHT22;36525;49.398;7.614;2022-09-24T03:58:41;7.80;99.90
50570;DHT22;36525;49.398;7.614;2022-09-24T04:01:14;7.90;99.90
50570;DHT22;36525;49.398;7.614;2022-09-24T04:03:53;7.90;99.90
50570;DHT22;36525;49.398;7.614;2022-09-24T04:06:19;7.80;99.90
50570;DHT22;36525;49.398;7.614;2022-09-24T04:08:51;7.80;99.90
50570;DHT22;36525;49.398;7.614;2022-09-24T04:11:18;7.80;99.90
50570;DHT22;36525;49.398;7.614;2022-09-24T04:13:45;7.80;99.90
50570;DHT22;36525;49.398;7.614;2022-09-24T04:16:12;7.90;99.90
50570;DHT22;36525;49.398;7.614;2022-09-24T04:18:40;7.80;99.90
50570;DHT22;36525;49.398;7.614;2022-09-24T04:21:07;7.80;99.90
50570;DHT22;36525;49.398;7.614;2022-09-24T04:23:34;7.80;99.90
50570;DHT22;36525;49.398;7.614;2022-09-24T04:26:01;7.80;99.90
50570;DHT22;36525;49.398;7.614;2022-09-24T04:28:29;7.80;99.90
50570;DHT22;36525;49.398;7.614;2022-09-24T04:30:57;7.90;99.90
50570;DHT22;36525;49.398;7.614;2022-09-24T04:33:24;7.90;99.90
50570;DHT22;36525;49.398;7.614;2022-09-24T04:35:53;7.90;99.90
50570;DHT22;36525;49.398;7.614;2022-09-24T04:38:20;7.90;99.90
50570;DHT22;36525;49.398;7.614;2022-09-24T04:40:47;7.90;99.90
50570;DHT22;36525;49.398;7.614;2022-09-24T04:43:14;7.90;99.90
50570;DHT22;36525;49.398;7.614;2022-09-24T04:45:43;7.90;99.90
50570;DHT22;36525;49.398;7.614;2022-09-24T04:48:12;7.90;99.90
50570;DHT22;36525;49.398;7.614;2022-09-24T04:50:45;7.80;99.90
50570;DHT22;36525;49.398;7.614;2022-09-24T04:53:12;7.70;99.90
50570;DHT22;36525;49.398;7.614;2022-09-24T04:55:39;7.80;99.90
50570;DHT22;36525;49.398;7.614;2022-09-24T04:58:08;7.80;99.90
50570;DHT22;36525;49.398;7.614;2022-09-24T05:00:35;7.90;99.90
50570;DHT22;36525;49.398;7.614;2022-09-24T05:03:03;8.10;99.90
50570;DHT22;36525;49.398;7.614;2022-09-24T05:05:34;8.10;99.90
50570;DHT22;36525;49.398;7.614;2022-09-24T05:08:02;8.10;99.90
50570;DHT22;36525;49.398;7.614;2022-09-24T05:10:30;8.10;99.90
50570;DHT22;36525;49.398;7.614;2022-09-24T05:12:59;8.10;99.90
50570;DHT22;36525;49.398;7.614;2022-09-24T05:15:26;8.10;99.90
50570;DHT22;36525;49.398;7.614;2022-09-24T05:17:53;8.10;99.90
50570;DHT22;36525;49.398;7.614;2022-09-24T05:20:20;8.10;99.90
50570;DHT22;36525;49.398;7.614;2022-09-24T05:22:48;8.00;99.90
50570;DHT22;36525;49.398;7.614;2022-09-24T05:25:17;8.00;99.90
50570;DHT22;36525;49.398;7.614;2022-09-24T05:27:53;7.90;99.90
50570;DHT22;36525;49.398;7.614;2022-09-24T05:30:23;7.90;99.90
50570;DHT22;36525;49.398;7.614;2022-09-24T05:32:50;7.90;99.90
50570;DHT22;36525;49.398;7.614;2022-09-24T05:35:19;7.90;99.90
50570;DHT22;36525;49.398;7.614;2022-09-24T05:37:48;7.90;99.90
50570;DHT22;36525;49.398;7.614;2022-09-24T05:40:15;8.10;99.90
50570;DHT22;36525;49.398;7.614;2022-09-24T05:43:02;8.10;99.90
50570;DHT22;36525;49.398;7.614;2022-09-24T05:45:30;8.20;99.90
50570;DHT22;36525;49.398;7.614;2022-09-24T05:47:57;8.30;99.90
50570;DHT22;36525;49.398;7.614;2022-09-24T05:50:26;8.30;99.90
50570;DHT22;36525;49.398;7.614;2022-09-24T05:52:53;8.40;99.90
50570;DHT22;36525;49.398;7.614;2022-09-24T05:55:20;8.50;99.90
50570;DHT22;36525;49.398;7.614;2022-09-24T05:57:47;8.40;99.90
50570;DHT22;36525;49.398;7.614;2022-09-24T06:00:15;8.50;99.90
50570;DHT22;36525;49.398;7.614;2022-09-24T06:02:42;8.60;99.90
50570;DHT22;36525;49.398;7.614;2022-09-24T06:05:09;8.60;99.90
50570;DHT22;36525;49.398;7.614;2022-09-24T06:07:43;8.60;99.90
50570;DHT22;36525;49.398;7.614;2022-09-24T06:10:10;8.70;99.90
50570;DHT22;36525;49.398;7.614;2022-09-24T06:12:37;8.90;99.90
50570;DHT22;36525;49.398;7.614;2022-09-24T06:15:05;9.00;99.90
50570;DHT22;36525;49.398;7.614;2022-09-24T06:17:32;9.10;99.90
50570;DHT22;36525;49.398;7.614;2022-09-24T06:19:59;9.20;99.90
50570;DHT22;36525;49.398;7.614;2022-09-24T06:22:27;9.30;99.90
50570;DHT22;36525;49.398;7.614;2022-09-24T06:24:54;9.50;99.90
50570;DHT22;36525;49.398;7.614;2022-09-24T06:27:22;9.70;99.90
50570;DHT22;36525;49.398;7.614;2022-09-24T06:29:49;9.70;99.90
50570;DHT22;36525;49.398;7.614;2022-09-24T06:32:16;9.80;99.90
50570;DHT22;36525;49.398;7.614;2022-09-24T06:34:44;9.80;99.90
50570;DHT22;36525;49.398;7.614;2022-09-24T06:37:11;9.80;99.90
50570;DHT22;36525;49.398;7.614;2022-09-24T06:39:38;9.90;99.90
50570;DHT22;36525;49.398;7.614;2022-09-24T06:42:05;9.80;99.90
50570;DHT22;36525;49.398;7.614;2022-09-24T06:44:33;9.80;99.90
50570;DHT22;36525;49.398;7.614;2022-09-24T06:47:00;9.80;99.90
50570;DHT22;36525;49.398;7.614;2022-09-24T06:49:27;9.80;99.90
50570;DHT22;36525;49.398;7.614;2022-09-24T06:52:00;9.80;99.90
50570;DHT22;36525;49.398;7.614;2022-09-24T06:54:27;9.90;99.90
50570;DHT22;36525;49.398;7.614;2022-09-24T06:56:54;9.90;99.90
50570;DHT22;36525;49.398;7.614;2022-09-24T06:59:21;10.00;99.90
50570;DHT22;36525;49.398;7.614;2022-09-24T07:01:48;10.10;99.90
50570;DHT22;36525;49.398;7.614;2022-09-24T07:04:15;10.20;99.90
50570;DHT22;36525;49.398;7.614;2022-09-24T07:06:42;10.30;99.90
50570;DHT22;36525;49.398;7.614;2022-09-24T07:09:27;10.30;99.90
50570;DHT22;36525;49.398;7.614;2022-09-24T07:11:54;10.30;99.90
50570;DHT22;36525;49.398;7.614;2022-09-24T07:14:24;10.30;99.90
50570;DHT22;36525;49.398;7.614;2022-09-24T07:16:51;10.40;99.90
50570;DHT22;36525;49.398;7.614;2022-09-24T07:19:19;10.50;99.90
50570;DHT22;36525;49.398;7.614;2022-09-24T07:21:46;10.70;99.90
50570;DHT22;36525;49.398;7.614;2022-09-24T07:24:13;10.70;99.90
50570;DHT22;36525;49.398;7.614;2022-09-24T07:26:40;10.80;99.90
50570;DHT22;36525;49.398;7.614;2022-09-24T07:29:07;11.00;99.90
50570;DHT22;36525;49.398;7.614;2022-09-24T07:31:34;11.00;99.90
50570;DHT22;36525;49.398;7.614;2022-09-24T07:34:02;11.20;99.90
50570;DHT22;36525;49.398;7.614;2022-09-24T07:36:29;11.30;99.90
50570;DHT22;36525;49.398;7.614;2022-09-24T07:38:57;11.40;99.90
50570;DHT22;36525;49.398;7.614;2022-09-24T07:41:29;11.50;99.90
50570;DHT22;36525;49.398;7.614;2022-09-24T07:43:56;11.60;99.90
50570;DHT22;36525;49.398;7.614;2022-09-24T07:46:22;11.60;99.90
50570;DHT22;36525;49.398;7.614;2022-09-24T07:48:53;11.70;99.90
50570;DHT22;36525;49.398;7.614;2022-09-24T07:51:24;11.90;99.90
50570;DHT22;36525;49.398;7.614;2022-09-24T07:53:54;11.90;99.90
50570;DHT22;36525;49.398;7.614;2022-09-24T07:56:23;12.10;99.90
50570;DHT22;36525;49.398;7.614;2022-09-24T07:58:51;12.20;99.90
50570;DHT22;36525;49.398;7.614;2022-09-24T08:01:19;12.20;99.90
50570;DHT22;36525;49.398;7.614;2022-09-24T08:03:46;12.20;99.90
50570;DHT22;36525;49.398;7.614;2022-09-24T08:06:13;12.20;99.90
50570;DHT22;36525;49.398;7.614;2022-09-24T08:08:40;12.30;99.90
50570;DHT22;36525;49.398;7.614;2022-09-24T08:11:10;12.40;99.90
50570;DHT22;36525;49.398;7.614;2022-09-24T08:13:42;12.40;99.90
50570;DHT22;36525;49.398;7.614;2022-09-24T08:16:11;12.40;99.90
50570;DHT22;36525;49.398;7.614;2022-09-24T08:18:38;12.60;99.90
50570;DHT22;36525;49.398;7.614;2022-09-24T08:21:10;12.90;99.90
50570;DHT22;36525;49.398;7.614;2022-09-24T08:23:38;13.10;99.90
50570;DHT22;36525;49.398;7.614;2022-09-24T08:26:09;13.30;99.90
50570;DHT22;36525;49.398;7.614;2022-09-24T08:28:37;13.30;99.90
50570;DHT22;36525;49.398;7.614;2022-09-24T08:31:09;13.20;99.90
50570;DHT22;36525;49.398;7.614;2022-09-24T08:33:37;13.10;99.90
50570;DHT22;36525;49.398;7.614;2022-09-24T08:36:07;13.00;99.90
50570;DHT22;36525;49.398;7.614;2022-09-24T08:38:35;12.80;99.90
50570;DHT22;36525;49.398;7.614;2022-09-24T08:46:31;12.60;99.90
50570;DHT22;36525;49.398;7.614;2022-09-24T08:49:34;12.70;99.90
50570;DHT22;36525;49.398;7.614;2022-09-24T08:55:13;13.20;99.90
50570;DHT22;36525;49.398;7.614;2022-09-24T08:58:07;13.30;99.90
50570;DHT22;36525;49.398;7.614;2022-09-24T09:00:56;13.50;99.90
50570;DHT22;36525;49.398;7.614;2022-09-24T09:12:41;14.50;99.90
50570;DHT22;36525;49.398;7.614;2022-09-24T09:15:18;14.60;99.90
50570;DHT22;36525;49.398;7.614;2022-09-24T09:18:00;14.80;99.90
50570;DHT22;36525;49.398;7.614;2022-09-24T09:20:39;14.90;99.90
50570;DHT22;36525;49.398;7.614;2022-09-24T09:23:29;15.10;99.90
50570;DHT22;36525;49.398;7.614;2022-09-24T09:26:00;15.00;99.90
50570;DHT22;36525;49.398;7.614;2022-09-24T09:28:28;14.90;99.90
50570;DHT22;36525;49.398;7.614;2022-09-24T09:36:42;15.10;99.90
50570;DHT22;36525;49.398;7.614;2022-09-24T09:42:35;15.00;99.90
50570;DHT22;36525;49.398;7.614;2022-09-24T09:45:22;15.10;99.90
50570;DHT22;36525;49.398;7.614;2022-09-24T09:47:58;15.00;99.90
50570;DHT22;36525;49.398;7.614;2022-09-24T09:50:38;15.10;99.90
50570;DHT22;36525;49.398;7.614;2022-09-24T09:53:28;15.10;99.90
50570;DHT22;36525;49.398;7.614;2022-09-24T09:56:05;15.40;99.90
50570;DHT22;36525;49.398;7.614;2022-09-24T09:58:43;15.90;99.90
50570;DHT22;36525;49.398;7.614;2022-09-24T10:01:15;16.10;99.90
50570;DHT22;36525;49.398;7.614;2022-09-24T10:06:23;17.00;99.90
50570;DHT22;36525;49.398;7.614;2022-09-24T10:09:15;17.20;99.90
50570;DHT22;36525;49.398;7.614;2022-09-24T10:11:45;17.20;99.90
50570;DHT22;36525;49.398;7.614;2022-09-24T10:14:15;17.40;99.90
50570;DHT22;36525;49.398;7.614;2022-09-24T10:16:48;17.70;99.90
50570;DHT22;36525;49.398;7.614;2022-09-24T10:19:22;17.70;99.90
50570;DHT22;36525;49.398;7.614;2022-09-24T10:21:52;17.90;99.90
50570;DHT22;36525;49.398;7.614;2022-09-24T10:24:24;18.10;99.90
50570;DHT22;36525;49.398;7.614;2022-09-24T10:26:53;18.00;99.90
50570;DHT22;36525;49.398;7.614;2022-09-24T10:29:32;17.90;99.90
50570;DHT22;36525;49.398;7.614;2022-09-24T10:32:20;17.70;99.90
50570;DHT22;36525;49.398;7.614;2022-09-24T10:34:58;17.60;99.90
50570;DHT22;36525;49.398;7.614;2022-09-24T10:37:27;17.40;99.90
50570;DHT22;36525;49.398;7.614;2022-09-24T10:39:59;17.50;99.90
50570;DHT22;36525;49.398;7.614;2022-09-24T10:42:38;17.40;99.90
50570;DHT22;36525;49.398;7.614;2022-09-24T10:45:10;17.20;99.90
50570;DHT22;36525;49.398;7.614;2022-09-24T10:56:49;16.90;99.90
50570;DHT22;36525;49.398;7.614;2022-09-24T11:02:39;17.60;99.90
50570;DHT22;36525;49.398;7.614;2022-09-24T11:05:23;18.00;99.90
50570;DHT22;36525;49.398;7.614;2022-09-24T11:25:56;18.10;99.90
50570;DHT22;36525;49.398;7.614;2022-09-24T11:34:21;18.50;99.90
50570;DHT22;36525;49.398;7.614;2022-09-24T11:52:27;18.60;99.90
50570;DHT22;36525;49.398;7.614;2022-09-24T11:55:15;18.50;99.90
50570;DHT22;36525;49.398;7.614;2022-09-24T12:01:12;19.30;99.90
50570;DHT22;36525;49.398;7.614;2022-09-24T12:03:46;19.30;99.90
50570;DHT22;36525;49.398;7.614;2022-09-24T12:06:59;19.40;99.90
50570;DHT22;36525;49.398;7.614;2022-09-24T12:09:46;19.30;99.90
50570;DHT22;36525;49.398;7.614;2022-09-24T12:12:32;19.40;99.90
50570;DHT22;36525;49.398;7.614;2022-09-24T12:15:17;19.50;99.90
50570;DHT22;36525;49.398;7.614;2022-09-24T12:20:56;20.10;99.90
50570;DHT22;36525;49.398;7.614;2022-09-24T12:23:29;20.90;99.90
50570;DHT22;36525;49.398;7.614;2022-09-24T12:26:01;21.10;99.90
50570;DHT22;36525;49.398;7.614;2022-09-24T12:28:46;20.80;99.90
50570;DHT22;36525;49.398;7.614;2022-09-24T12:32:12;20.70;99.90
50570;DHT22;36525;49.398;7.614;2022-09-24T12:37:39;20.20;99.90
50570;DHT22;36525;49.398;7.614;2022-09-24T12:42:48;20.40;99.90
50570;DHT22;36525;49.398;7.614;2022-09-24T12:45:19;20.30;99.90
50570;DHT22;36525;49.398;7.614;2022-09-24T12:47:54;20.50;99.90
50570;DHT22;36525;49.398;7.614;2022-09-24T12:50:27;20.80;99.90
50570;DHT22;36525;49.398;7.614;2022-09-24T12:52:57;20.90;99.90
50570;DHT22;36525;49.398;7.614;2022-09-24T12:55:26;21.00;99.90
50570;DHT22;36525;49.398;7.614;2022-09-24T12:58:00;20.90;99.90
50570;DHT22;36525;49.398;7.614;2022-09-24T13:00:34;20.70;99.90
50570;DHT22;36525;49.398;7.614;2022-09-24T13:03:35;20.50;99.90
50570;DHT22;36525;49.398;7.614;2022-09-24T13:08:57;19.60;99.90
50570;DHT22;36525;49.398;7.614;2022-09-24T13:11:32;19.40;99.90
50570;DHT22;36525;49.398;7.614;2022-09-24T13:14:19;19.50;99.90
50570;DHT22;36525;49.398;7.614;2022-09-24T13:16:49;19.60;99.90
50570;DHT22;36525;49.398;7.614;2022-09-24T13:19:39;19.70;99.90
50570;DHT22;36525;49.398;7.614;2022-09-24T13:22:36;20.00;99.90
50570;DHT22;36525;49.398;7.614;2022-09-24T13:25:24;20.60;99.90
50570;DHT22;36525;49.398;7.614;2022-09-24T13:28:03;20.80;99.90
50570;DHT22;36525;49.398;7.614;2022-09-24T13:30:49;21.90;99.90
50570;DHT22;36525;49.398;7.614;2022-09-24T13:33:29;22.20;99.90
50570;DHT22;36525;49.398;7.614;2022-09-24T13:36:13;22.30;99.90
50570;DHT22;36525;49.398;7.614;2022-09-24T13:39:06;21.90;99.90
50570;DHT22;36525;49.398;7.614;2022-09-24T13:41:41;21.20;99.90
50570;DHT22;36525;49.398;7.614;2022-09-24T13:46:59;21.00;99.90
50570;DHT22;36525;49.398;7.614;2022-09-24T13:49:32;21.30;99.90
50570;DHT22;36525;49.398;7.614;2022-09-24T13:55:32;21.10;99.90
50570;DHT22;36525;49.398;7.614;2022-09-24T13:58:02;20.80;99.90
50570;DHT22;36525;49.398;7.614;2022-09-24T14:00:30;20.70;99.90
50570;DHT22;36525;49.398;7.614;2022-09-24T14:03:20;20.60;99.90
50570;DHT22;36525;49.398;7.614;2022-09-24T14:05:51;20.50;99.90
50570;DHT22;36525;49.398;7.614;2022-09-24T14:08:20;20.30;99.90
50570;DHT22;36525;49.398;7.614;2022-09-24T14:10:49;20.20;99.90
50570;DHT22;36525;49.398;7.614;2022-09-24T14:13:26;20.30;99.90
50570;DHT22;36525;49.398;7.614;2022-09-24T14:18:33;20.30;99.90
50570;DHT22;36525;49.398;7.614;2022-09-24T14:24:04;19.90;99.90
50570;DHT22;36525;49.398;7.614;2022-09-24T14:26:37;19.70;99.90
50570;DHT22;36525;49.398;7.614;2022-09-24T14:29:33;19.60;99.90
50570;DHT22;36525;49.398;7.614;2022-09-24T14:32:26;19.40;99.90
50570;DHT22;36525;49.398;7.614;2022-09-24T14:34:57;19.20;99.90
50570;DHT22;36525;49.398;7.614;2022-09-24T14:37:37;19.00;99.90
50570;DHT22;36525;49.398;7.614;2022-09-24T14:40:15;18.90;99.90
50570;DHT22;36525;49.398;7.614;2022-09-24T14:42:47;18.70;99.90
50570;DHT22;36525;49.398;7.614;2022-09-24T14:45:37;18.70;99.90
50570;DHT22;36525;49.398;7.614;2022-09-24T14:48:15;18.60;99.90
50570;DHT22;36525;49.398;7.614;2022-09-24T14:50:44;18.60;99.90
50570;DHT22;36525;49.398;7.614;2022-09-24T14:55:49;18.50;99.90
50570;DHT22;36525;49.398;7.614;2022-09-24T14:58:33;18.50;99.90
50570;DHT22;36525;49.398;7.614;2022-09-24T15:01:05;18.50;99.90
50570;DHT22;36525;49.398;7.614;2022-09-24T15:03:49;18.50;99.90
50570;DHT22;36525;49.398;7.614;2022-09-24T15:06:21;18.40;99.90
50570;DHT22;36525;49.398;7.614;2022-09-24T15:09:19;18.30;99.90
50570;DHT22;36525;49.398;7.614;2022-09-24T15:11:52;18.20;99.90
50570;DHT22;36525;49.398;7.614;2022-09-24T15:14:30;18.10;99.90
50570;DHT22;36525;49.398;7.614;2022-09-24T15:17:09;18.10;99.90
50570;DHT22;36525;49.398;7.614;2022-09-24T15:19:46;18.00;99.90
50570;DHT22;36525;49.398;7.614;2022-09-24T15:22:13;18.00;99.90
50570;DHT22;36525;49.398;7.614;2022-09-24T15:24:40;18.10;99.90
50570;DHT22;36525;49.398;7.614;2022-09-24T15:27:23;18.10;99.90
50570;DHT22;36525;49.398;7.614;2022-09-24T15:29:56;18.10;99.90
50570;DHT22;36525;49.398;7.614;2022-09-24T15:32:27;18.00;99.90
50570;DHT22;36525;49.398;7.614;2022-09-24T15:34:55;17.90;99.90
50570;DHT22;36525;49.398;7.614;2022-09-24T15:37:25;17.60;99.90
50570;DHT22;36525;49.398;7.614;2022-09-24T15:42:26;17.20;99.90
50570;DHT22;36525;49.398;7.614;2022-09-24T15:44:52;17.30;99.90
50570;DHT22;36525;49.398;7.614;2022-09-24T15:47:20;17.30;99.90
50570;DHT22;36525;49.398;7.614;2022-09-24T15:49:47;17.40;99.90
50570;DHT22;36525;49.398;7.614;2022-09-24T15:52:21;17.40;99.90
50570;DHT22;36525;49.398;7.614;2022-09-24T15:54:55;17.30;99.90
50570;DHT22;36525;49.398;7.614;2022-09-24T15:57:24;17.30;99.90
50570;DHT22;36525;49.398;7.614;2022-09-24T15:59:54;17.30;99.90
50570;DHT22;36525;49.398;7.614;2022-09-24T16:02:27;17.30;99.90
50570;DHT22;36525;49.398;7.614;2022-09-24T16:04:55;17.30;99.90
50570;DHT22;36525;49.398;7.614;2022-09-24T16:07:29;17.30;99.90
50570;DHT22;36525;49.398;7.614;2022-09-24T16:09:56;17.20;99.90
50570;DHT22;36525;49.398;7.614;2022-09-24T16:12:23;17.20;99.90
50570;DHT22;36525;49.398;7.614;2022-09-24T16:14:53;17.00;99.90
50570;DHT22;36525;49.398;7.614;2022-09-24T16:17:28;17.00;99.90
50570;DHT22;36525;49.398;7.614;2022-09-24T16:19:55;16.70;99.90
50570;DHT22;36525;49.398;7.614;2022-09-24T16:22:22;16.70;99.90
50570;DHT22;36525;49.398;7.614;2022-09-24T16:24:49;16.70;99.90
50570;DHT22;36525;49.398;7.614;2022-09-24T16:27:16;16.60;99.90
50570;DHT22;36525;49.398;7.614;2022-09-24T16:29:43;16.60;99.90
50570;DHT22;36525;49.398;7.614;2022-09-24T16:32:10;16.60;99.90
50570;DHT22;36525;49.398;7.614;2022-09-24T16:34:39;16.40;99.90
50570;DHT22;36525;49.398;7.614;2022-09-24T16:37:09;16.40;99.90
50570;DHT22;36525;49.398;7.614;2022-09-24T16:39:41;16.30;99.90
50570;DHT22;36525;49.398;7.614;2022-09-24T16:42:08;16.30;99.90
50570;DHT22;36525;49.398;7.614;2022-09-24T16:44:36;16.20;99.90
50570;DHT22;36525;49.398;7.614;2022-09-24T16:47:03;16.00;99.90
50570;DHT22;36525;49.398;7.614;2022-09-24T16:49:30;15.90;99.90
50570;DHT22;36525;49.398;7.614;2022-09-24T16:51:57;15.70;99.90
50570;DHT22;36525;49.398;7.614;2022-09-24T16:54:23;15.50;99.90
50570;DHT22;36525;49.398;7.614;2022-09-24T16:56:51;15.30;99.90
50570;DHT22;36525;49.398;7.614;2022-09-24T16:59:18;15.10;99.90
50570;DHT22;36525;49.398;7.614;2022-09-24T17:01:45;15.00;99.90
50570;DHT22;36525;49.398;7.614;2022-09-24T17:04:12;14.90;99.90
50570;DHT22;36525;49.398;7.614;2022-09-24T17:06:39;14.90;99.90
50570;DHT22;36525;49.398;7.614;2022-09-24T17:09:06;14.90;99.90
50570;DHT22;36525;49.398;7.614;2022-09-24T17:11:52;14.90;99.90
50570;DHT22;36525;49.398;7.614;2022-09-24T17:14:19;14.80;99.90
50570;DHT22;36525;49.398;7.614;2022-09-24T17:16:46;14.70;99.90
50570;DHT22;36525;49.398;7.614;2022-09-24T17:19:13;14.70;99.90
50570;DHT22;36525;49.398;7.614;2022-09-24T17:21:42;14.60;99.90
50570;DHT22;36525;49.398;7.614;2022-09-24T17:24:11;14.50;99.90
50570;DHT22;36525;49.398;7.614;2022-09-24T17:29:12;14.30;99.90
50570;DHT22;36525;49.398;7.614;2022-09-24T17:31:39;14.20;99.90
50570;DHT22;36525;49.398;7.614;2022-09-24T17:34:07;14.00;99.90
50570;DHT22;36525;49.398;7.614;2022-09-24T17:36:37;14.00;99.90
50570;DHT22;36525;49.398;7.614;2022-09-24T17:39:05;13.80;99.90
50570;DHT22;36525;49.398;7.614;2022-09-24T17:41:32;13.80;99.90
50570;DHT22;36525;49.398;7.614;2022-09-24T17:44:00;13.70;99.90
50570;DHT22;36525;49.398;7.614;2022-09-24T17:46:29;13.70;99.90
50570;DHT22;36525;49.398;7.614;2022-09-24T17:49:00;13.70;99.90
50570;DHT22;36525;49.398;7.614;2022-09-24T17:51:30;13.70;99.90
50570;DHT22;36525;49.398;7.614;2022-09-24T17:54:00;13.70;99.90
50570;DHT22;36525;49.398;7.614;2022-09-24T17:56:30;13.70;99.90
50570;DHT22;36525;49.398;7.614;2022-09-24T17:58:59;13.70;99.90
50570;DHT22;36525;49.398;7.614;2022-09-24T18:01:31;13.80;99.90
50570;DHT22;36525;49.398;7.614;2022-09-24T18:04:03;13.70;99.90
50570;DHT22;36525;49.398;7.614;2022-09-24T18:06:34;13.60;99.90
50570;DHT22;36525;49.398;7.614;2022-09-24T18:09:02;13.50;99.90
50570;DHT22;36525;49.398;7.614;2022-09-24T18:11:33;13.40;99.90
50570;DHT22;36525;49.398;7.614;2022-09-24T18:14:11;13.30;99.90
50570;DHT22;36525;49.398;7.614;2022-09-24T18:16:40;13.30;99.90
50570;DHT22;36525;49.398;7.614;2022-09-24T18:19:09;13.30;99.90
50570;DHT22;36525;49.398;7.614;2022-09-24T18:21:37;13.30;99.90